Time;durP1;ratioP1;P1;durP2;ratioP2;P2;SDS_P1;SDS_P2;PMS_P1;PMS_P2;Temp;Humidity;BMP_temperature;BMP_pressure;BME280_temperature;BME280_humidity;BME280_pressure;Samples;Min_cycle;Max_cycle;Signal;HPM_P1;HPM_P2
2023/09/22 00:01:04;;;;;;;1.90;1.20;;;20.90;99.90;;;;;;5018429;28;20184;-87
2023/09/22 00:03:30;;;;;;;1.33;1.10;;;20.90;99.90;;;;;;5002827;28;20547;-86
2023/09/22 00:05:59;;;;;;;1.43;0.97;;;21.00;99.90;;;;;;5000269;28;20228;-87
2023/09/22 00:08:24;;;;;;;2.63;1.10;;;21.00;99.90;;;;;;4999473;28;20284;-86
2023/09/22 00:10:50;;;;;;;1.57;1.30;;;21.00;99.90;;;;;;5003934;28;20315;-86
2023/09/22 00:13:17;;;;;;;2.57;1.33;;;21.00;99.90;;;;;;4996951;28;20170;-87
2023/09/22 00:15:44;;;;;;;1.10;1.00;;;21.00;99.90;;;;;;5037675;28;20220;-87
2023/09/22 00:18:22;;;;;;;1.40;1.20;;;21.00;99.90;;;;;;4997480;28;20650;-87
2023/09/22 00:20:54;;;;;;;1.27;1.00;;;21.00;99.90;;;;;;5007374;28;20181;-87
2023/09/22 00:23:29;;;;;;;1.77;1.07;;;21.00;99.90;;;;;;4998514;28;20173;-87
2023/09/22 00:26:10;;;;;;;1.13;0.90;;;21.00;99.90;;;;;;5003849;28;20184;-86
2023/09/22 00:28:36;;;;;;;3.13;1.20;;;21.10;99.90;;;;;;5030940;28;20200;-86
2023/09/22 00:31:05;;;;;;;1.73;1.20;;;21.00;99.90;;;;;;5035845;28;20543;-86
2023/09/22 00:34:51;;;;;;;1.40;1.10;;;21.10;99.90;;;;;;5012974;28;20179;-86
2023/09/22 00:37:23;;;;;;;2.27;1.20;;;21.00;99.90;;;;;;5012173;28;20262;-85
2023/09/22 00:39:52;;;;;;;1.40;1.10;;;21.10;99.90;;;;;;5010105;28;20213;-86
2023/09/22 00:42:32;;;;;;;2.73;1.17;;;21.10;99.90;;;;;;5011044;28;20173;-86
2023/09/22 00:45:02;;;;;;;3.00;1.20;;;21.10;99.90;;;;;;5011285;28;20214;-85
2023/09/22 00:47:40;;;;;;;1.43;1.10;;;21.10;99.90;;;;;;5013919;28;20238;-86
2023/09/22 00:50:09;;;;;;;2.20;1.00;;;21.10;99.90;;;;;;5042072;28;20177;-86
2023/09/22 00:52:44;;;;;;;2.03;1.13;;;21.10;99.90;;;;;;5011628;28;20227;-86
2023/09/22 00:55:13;;;;;;;1.70;1.13;;;21.10;99.90;;;;;;5010230;28;20169;-85
2023/09/22 00:57:52;;;;;;;1.23;1.00;;;21.10;99.90;;;;;;5010475;28;20180;-87
2023/09/22 01:00:27;;;;;;;1.30;1.00;;;21.10;99.90;;;;;;5010817;28;20197;-86
2023/09/22 01:03:05;;;;;;;2.60;1.20;;;21.00;99.90;;;;;;5011344;28;20172;-86
2023/09/22 01:05:33;;;;;;;1.00;0.90;;;21.00;99.90;;;;;;5043415;28;20169;-86
2023/09/22 01:08:08;;;;;;;1.17;0.90;;;21.00;99.90;;;;;;5027143;28;20169;-86
2023/09/22 01:10:40;;;;;;;1.33;1.00;;;21.10;99.90;;;;;;5011652;28;20467;-86
2023/09/22 01:13:09;;;;;;;0.80;0.80;;;21.10;99.90;;;;;;5008629;28;20183;-86
2023/09/22 01:15:40;;;;;;;1.20;1.00;;;21.10;99.90;;;;;;5011658;28;20180;-86
2023/09/22 01:18:10;;;;;;;1.00;0.90;;;21.10;99.90;;;;;;5006175;28;20562;-86
2023/09/22 01:20:45;;;;;;;1.17;1.07;;;21.10;99.90;;;;;;5009804;28;20197;-85
2023/09/22 01:23:13;;;;;;;1.10;0.97;;;21.10;99.90;;;;;;5003035;28;20185;-86
2023/09/22 01:25:48;;;;;;;1.10;1.00;;;21.10;99.90;;;;;;4995336;28;20560;-86
2023/09/22 01:28:23;;;;;;;2.80;1.20;;;21.10;99.90;;;;;;4995766;28;20173;-86
2023/09/22 01:30:51;;;;;;;1.63;0.93;;;21.10;99.90;;;;;;5029946;28;20196;-86
2023/09/22 01:33:21;;;;;;;2.03;1.00;;;21.10;99.90;;;;;;4993954;28;20169;-86
2023/09/22 01:35:47;;;;;;;1.20;1.07;;;21.10;99.90;;;;;;5041789;28;20606;-86
2023/09/22 01:38:24;;;;;;;0.93;0.90;;;21.10;99.90;;;;;;5015324;28;20250;-86
2023/09/22 01:41:16;;;;;;;1.00;0.90;;;21.00;99.90;;;;;;5012729;28;20188;-86
2023/09/22 01:43:55;;;;;;;;;;;;;;;;;;;;;
2023/09/22 01:46:26;;;;;;;1.60;1.10;;;21.00;99.90;;;;;;5027759;28;20566;-86
2023/09/22 01:48:54;;;;;;;1.70;1.00;;;21.00;99.90;;;;;;5004286;28;20179;-86
2023/09/22 01:51:20;;;;;;;1.57;1.03;;;21.00;99.90;;;;;;5013160;28;20185;-87
2023/09/22 01:53:48;;;;;;;1.07;0.97;;;21.10;99.90;;;;;;5001914;28;20176;-87
2023/09/22 01:56:14;;;;;;;1.90;1.00;;;21.00;99.90;;;;;;5011087;28;20173;-86
2023/09/22 01:58:49;;;;;;;1.63;1.00;;;21.00;99.90;;;;;;5034858;28;20193;-86
2023/09/22 02:01:27;;;;;;;1.30;1.10;;;21.10;99.90;;;;;;5013414;28;20415;-86
2023/09/22 02:03:55;;;;;;;6.50;1.20;;;21.10;99.90;;;;;;5004578;28;20173;-87
2023/09/22 02:06:21;;;;;;;1.27;1.00;;;21.10;99.90;;;;;;4993703;28;20527;-86
2023/09/22 02:08:47;;;;;;;1.43;1.00;;;21.10;99.90;;;;;;5001087;28;20216;-86
2023/09/22 02:11:19;;;;;;;0.87;0.80;;;21.00;99.90;;;;;;5030934;28;20308;-86
2023/09/22 02:13:47;;;;;;;0.80;0.80;;;21.00;99.90;;;;;;5025807;28;20211;-87
2023/09/22 02:16:16;;;;;;;1.50;0.90;;;21.00;99.90;;;;;;4994607;28;20174;-87
2023/09/22 02:18:42;;;;;;;1.13;0.90;;;21.00;99.90;;;;;;5006112;28;20299;-86
2023/09/22 02:21:08;;;;;;;1.10;1.00;;;21.00;99.90;;;;;;4994189;28;20258;-87
2023/09/22 02:23:33;;;;;;;0.80;0.80;;;21.00;99.90;;;;;;5003755;28;20180;-87
2023/09/22 02:26:08;;;;;;;0.90;0.80;;;21.00;99.90;;;;;;4999120;28;20174;-86
2023/09/22 02:28:35;;;;;;;1.67;0.90;;;21.00;99.90;;;;;;5002491;28;20160;-86
2023/09/22 02:31:01;;;;;;;1.57;1.07;;;21.10;99.90;;;;;;5014705;28;20234;-86
2023/09/22 02:33:30;;;;;;;1.10;0.90;;;21.00;99.90;;;;;;5026680;28;20170;-86
2023/09/22 02:35:56;;;;;;;1.57;0.90;;;21.00;99.90;;;;;;5009468;28;20200;-86
2023/09/22 02:38:28;;;;;;;1.23;0.90;;;21.00;99.90;;;;;;5010640;28;20169;-86
2023/09/22 02:40:56;;;;;;;1.17;0.93;;;21.00;99.90;;;;;;5006280;28;20181;-86
2023/09/22 02:43:23;;;;;;;1.07;0.97;;;21.00;99.90;;;;;;5011221;28;20256;-86
2023/09/22 02:45:53;;;;;;;0.80;0.80;;;21.10;99.90;;;;;;5004022;28;20553;-86
2023/09/22 02:48:21;;;;;;;1.30;1.00;;;21.10;99.90;;;;;;5011891;28;20250;-86
2023/09/22 02:50:50;;;;;;;1.47;1.00;;;21.00;99.90;;;;;;5003131;28;20249;-86
2023/09/22 02:53:19;;;;;;;1.30;0.90;;;21.00;99.90;;;;;;5011493;28;20178;-87
2023/09/22 02:55:47;;;;;;;2.00;0.90;;;21.00;99.90;;;;;;5001475;28;20184;-86
2023/09/22 02:58:14;;;;;;;1.23;0.90;;;21.00;99.90;;;;;;5011041;28;20200;-86
2023/09/22 03:00:45;;;;;;;1.40;1.10;;;21.00;99.90;;;;;;5000227;28;20725;-86
2023/09/22 03:03:15;;;;;;;1.30;0.87;;;21.00;99.90;;;;;;5012018;28;20379;-85
2023/09/22 03:05:41;;;;;;;0.93;0.80;;;21.00;99.90;;;;;;5019679;28;20471;-86
2023/09/22 03:08:09;;;;;;;2.10;1.00;;;21.00;99.90;;;;;;5018971;28;20185;-86
2023/09/22 03:10:38;;;;;;;1.20;1.07;;;21.00;99.90;;;;;;5007393;28;20181;-86
2023/09/22 03:13:07;;;;;;;1.23;1.00;;;21.00;99.90;;;;;;5019140;28;20173;-86
2023/09/22 03:15:39;;;;;;;1.50;1.20;;;20.90;99.90;;;;;;5015247;28;20200;-86
2023/09/22 03:18:08;;;;;;;1.33;0.90;;;20.90;99.90;;;;;;4979318;28;20560;-86
2023/09/22 03:20:34;;;;;;;1.10;1.00;;;20.90;99.90;;;;;;5003636;28;20193;-86
2023/09/22 03:23:03;;;;;;;1.40;0.90;;;20.90;99.90;;;;;;5018167;28;20170;-86
2023/09/22 03:25:29;;;;;;;0.97;0.87;;;20.90;99.90;;;;;;5009439;28;20177;-86
2023/09/22 03:27:57;;;;;;;1.20;1.00;;;20.90;99.90;;;;;;5003460;28;20196;-86
2023/09/22 03:30:26;;;;;;;1.73;1.10;;;20.80;99.90;;;;;;5005655;28;20267;-86
2023/09/22 03:32:56;;;;;;;1.17;0.97;;;20.80;99.90;;;;;;5022730;28;20572;-86
2023/09/22 03:35:25;;;;;;;1.63;1.10;;;20.90;99.90;;;;;;5018829;28;20166;-86
2023/09/22 03:37:55;;;;;;;1.10;1.00;;;20.90;99.90;;;;;;5011947;28;20391;-86
2023/09/22 03:40:42;;;;;;;1.47;1.07;;;20.80;99.90;;;;;;5016089;28;20489;-86
2023/09/22 03:43:10;;;;;;;1.10;1.00;;;20.80;99.90;;;;;;5027502;28;20340;-86
2023/09/22 03:45:39;;;;;;;4.57;1.20;;;20.70;99.90;;;;;;5011996;28;20280;-86
2023/09/22 03:48:08;;;;;;;2.07;1.10;;;20.60;99.90;;;;;;5004277;28;20169;-86
2023/09/22 03:50:36;;;;;;;1.73;1.10;;;20.50;99.90;;;;;;5015646;28;20278;-86
2023/09/22 03:53:02;;;;;;;1.90;1.33;;;20.40;99.90;;;;;;5008210;28;20189;-86
2023/09/22 03:55:28;;;;;;;1.90;1.00;;;20.30;99.90;;;;;;4998023;28;20169;-86
2023/09/22 03:58:00;;;;;;;1.23;0.97;;;20.10;99.90;;;;;;5025090;28;20548;-86
2023/09/22 04:00:28;;;;;;;1.83;1.07;;;19.90;99.90;;;;;;4997019;28;20611;-85
2023/09/22 04:02:57;;;;;;;2.70;1.20;;;19.70;99.90;;;;;;5007295;28;20173;-86
2023/09/22 04:05:26;;;;;;;3.90;1.27;;;19.70;99.90;;;;;;5013927;28;20169;-86
2023/09/22 04:07:54;;;;;;;2.03;1.27;;;19.60;99.90;;;;;;5000683;28;20515;-85
2023/09/22 04:10:20;;;;;;;2.83;1.30;;;19.70;99.90;;;;;;5013995;28;20319;-86
2023/09/22 04:12:46;;;;;;;2.10;1.10;;;19.60;99.90;;;;;;5002201;28;20177;-86
2023/09/22 04:15:12;;;;;;;1.33;1.20;;;19.50;99.90;;;;;;5048201;28;20607;-85
2023/09/22 04:17:45;;;;;;;1.97;1.20;;;19.50;99.90;;;;;;5011990;28;20183;-85
2023/09/22 04:20:12;;;;;;;2.13;1.00;;;19.40;99.90;;;;;;4995353;28;20309;-85
2023/09/22 04:22:38;;;;;;;2.00;1.30;;;19.30;99.90;;;;;;5017187;28;20204;-85
2023/09/22 04:25:11;;;;;;;2.70;1.17;;;19.30;99.90;;;;;;4996881;28;20544;-85
2023/09/22 04:27:46;;;;;;;3.27;1.50;;;19.20;99.90;;;;;;5002663;28;20187;-85
2023/09/22 04:30:20;;;;;;;1.63;1.20;;;19.10;99.90;;;;;;4996498;28;20489;-85
2023/09/22 04:32:47;;;;;;;1.90;1.30;;;18.90;99.90;;;;;;4998950;28;20185;-85
2023/09/22 04:35:20;;;;;;;1.37;1.10;;;19.00;99.90;;;;;;5011509;28;20555;-85
2023/09/22 04:37:47;;;;;;;1.57;1.23;;;19.10;99.90;;;;;;5006105;28;20367;-85
2023/09/22 04:40:24;;;;;;;2.30;1.33;;;19.00;99.90;;;;;;5009691;28;20247;-85
2023/09/22 04:42:51;;;;;;;1.70;1.30;;;18.80;99.90;;;;;;5022812;28;20171;-85
2023/09/22 04:45:21;;;;;;;1.70;1.20;;;18.80;99.90;;;;;;5007603;28;20480;-86
2023/09/22 04:47:47;;;;;;;1.80;1.10;;;18.90;99.90;;;;;;5009352;28;20170;-85
2023/09/22 04:50:17;;;;;;;2.03;1.20;;;19.00;99.90;;;;;;5004038;28;20179;-85
2023/09/22 04:52:46;;;;;;;2.47;1.33;;;19.00;99.90;;;;;;5009213;28;20181;-85
2023/09/22 04:55:12;;;;;;;3.07;1.50;;;18.90;99.90;;;;;;5002403;28;20180;-85
2023/09/22 04:57:41;;;;;;;3.47;1.50;;;19.00;99.90;;;;;;5009518;28;20191;-84
2023/09/22 05:00:38;;;;;;;1.17;1.00;;;19.20;99.90;;;;;;4999631;28;20482;-86
2023/09/22 05:03:22;;;;;;;2.03;1.50;;;19.40;99.90;;;;;;5007912;28;20267;-85
2023/09/22 05:05:55;;;;;;;2.20;1.30;;;19.40;99.90;;;;;;5015987;28;20170;-85
2023/09/22 05:08:37;;;;;;;2.37;1.47;;;19.40;99.90;;;;;;4997675;28;20169;-86
2023/09/22 05:11:22;;;;;;;1.83;1.40;;;19.50;99.90;;;;;;5022007;28;20750;-85
2023/09/22 05:13:51;;;;;;;2.20;1.30;;;19.50;99.90;;;;;;5005752;28;20196;-85
2023/09/22 05:16:20;;;;;;;2.17;1.20;;;19.50;99.90;;;;;;5003622;28;20254;-85
2023/09/22 05:19:29;;;;;;;1.30;1.10;;;19.30;99.90;;;;;;5003798;28;20543;-85
2023/09/22 05:21:58;;;;;;;4.43;1.40;;;19.30;99.90;;;;;;4996810;28;20199;-85
2023/09/22 05:24:23;;;;;;;2.73;1.30;;;19.40;99.90;;;;;;5002021;28;20206;-86
2023/09/22 05:27:04;;;;;;;1.37;1.03;;;19.40;99.90;;;;;;5008697;28;20574;-85
2023/09/22 05:29:33;;;;;;;1.87;1.20;;;19.50;99.90;;;;;;5000527;28;20208;-86
2023/09/22 05:31:59;;;;;;;1.10;1.00;;;19.60;99.90;;;;;;5005978;28;20177;-86
2023/09/22 05:34:28;;;;;;;2.27;1.30;;;19.50;99.90;;;;;;5022232;28;20358;-85
2023/09/22 05:37:08;;;;;;;3.33;1.30;;;19.30;99.90;;;;;;5003616;28;20194;-85
2023/09/22 05:39:41;;;;;;;2.53;1.20;;;19.10;99.90;;;;;;5005883;28;20231;-85
2023/09/22 05:42:11;;;;;;;2.23;1.30;;;18.90;99.90;;;;;;5021710;28;20169;-86
2023/09/22 05:44:37;;;;;;;3.80;1.13;;;19.00;99.90;;;;;;5004911;28;20562;-85
2023/09/22 05:47:03;;;;;;;2.13;1.20;;;19.10;99.90;;;;;;5029562;28;20166;-86
2023/09/22 05:49:31;;;;;;;2.17;1.13;;;19.20;99.90;;;;;;4990419;28;20188;-86
2023/09/22 05:52:03;;;;;;;3.03;1.07;;;19.20;99.90;;;;;;4999725;28;20292;-85
2023/09/22 05:54:50;;;;;;;1.53;1.30;;;19.10;99.90;;;;;;4989058;28;20184;-86
2023/09/22 05:57:16;;;;;;;1.30;1.00;;;19.10;99.90;;;;;;4989981;28;20395;-85
2023/09/22 05:59:42;;;;;;;2.23;1.27;;;19.00;99.90;;;;;;5024057;28;20383;-85
2023/09/22 06:02:10;;;;;;;2.23;1.23;;;19.20;99.90;;;;;;4999970;28;20183;-86
2023/09/22 06:04:52;;;;;;;3.57;1.10;;;19.10;99.90;;;;;;5041239;28;20178;-86
2023/09/22 06:07:22;;;;;;;1.83;1.20;;;19.20;99.90;;;;;;5030096;28;20479;-85
2023/09/22 06:09:48;;;;;;;4.07;1.30;;;19.10;99.90;;;;;;5007065;28;20204;-85
2023/09/22 06:12:16;;;;;;;3.33;1.40;;;19.10;99.90;;;;;;5013805;28;20171;-86
2023/09/22 06:14:43;;;;;;;4.83;1.30;;;19.00;99.90;;;;;;5005969;28;20356;-86
2023/09/22 06:17:09;;;;;;;3.97;1.30;;;19.00;99.90;;;;;;4989458;28;20578;-86
2023/09/22 06:19:39;;;;;;;2.67;1.20;;;19.00;99.90;;;;;;4985002;28;20213;-86
2023/09/22 06:22:10;;;;;;;1.47;1.13;;;18.90;99.90;;;;;;4995654;28;20531;-86
2023/09/22 06:24:39;;;;;;;2.63;1.20;;;18.90;99.90;;;;;;4985557;28;20184;-86
2023/09/22 06:27:07;;;;;;;3.17;1.40;;;18.90;99.90;;;;;;4998384;28;20383;-87
2023/09/22 06:29:42;;;;;;;3.03;1.47;;;19.10;99.90;;;;;;4985463;28;20247;-86
2023/09/22 06:32:10;;;;;;;3.50;1.50;;;19.20;99.90;;;;;;4997932;28;20258;-86
2023/09/22 06:34:36;;;;;;;3.97;1.30;;;19.10;99.90;;;;;;4968812;28;20188;-87
2023/09/22 06:37:05;;;;;;;2.13;1.00;;;19.20;99.90;;;;;;5025924;28;20287;-87
2023/09/22 06:39:31;;;;;;;2.17;1.20;;;19.10;99.90;;;;;;4990262;28;20596;-87
2023/09/22 06:41:59;;;;;;;2.27;1.17;;;19.00;99.90;;;;;;5000170;28;20180;-86
2023/09/22 06:44:28;;;;;;;3.10;1.40;;;19.00;99.90;;;;;;5011422;28;20404;-86
2023/09/22 06:46:54;;;;;;;3.27;1.20;;;19.00;99.90;;;;;;5005192;28;20173;-86
2023/09/22 06:49:24;;;;;;;2.90;1.40;;;18.90;99.90;;;;;;5005770;28;20478;-85
2023/09/22 06:51:53;;;;;;;4.23;1.37;;;18.90;99.90;;;;;;5006946;28;20234;-86
2023/09/22 06:54:22;;;;;;;3.80;1.37;;;18.90;99.90;;;;;;5020468;28;20250;-86
2023/09/22 06:56:48;;;;;;;3.37;1.50;;;18.80;99.90;;;;;;5008719;28;20270;-85
2023/09/22 06:59:13;;;;;;;2.03;1.20;;;18.80;99.90;;;;;;5000577;28;20280;-86
2023/09/22 07:01:40;;;;;;;2.37;1.10;;;18.80;99.90;;;;;;5007738;28;20194;-86
2023/09/22 07:04:09;;;;;;;1.43;1.10;;;18.70;99.90;;;;;;5008379;28;20457;-86
2023/09/22 07:06:39;;;;;;;2.63;1.20;;;18.70;99.90;;;;;;5000783;28;20191;-86
2023/09/22 07:09:11;;;;;;;2.03;1.30;;;18.90;99.90;;;;;;5003492;28;20182;-86
2023/09/22 07:11:40;;;;;;;4.40;1.30;;;18.90;99.90;;;;;;4992287;28;20515;-87
2023/09/22 07:14:18;;;;;;;1.50;1.10;;;19.00;99.90;;;;;;5003725;28;20185;-87
2023/09/22 07:16:48;;;;;;;3.90;1.20;;;19.20;99.90;;;;;;4993663;28;20212;-87
2023/09/22 07:19:14;;;;;;;3.07;1.00;;;19.20;99.90;;;;;;5000425;28;20213;-86
2023/09/22 07:21:46;;;;;;;1.83;1.10;;;19.30;99.90;;;;;;5030913;28;20173;-86
2023/09/22 07:24:15;;;;;;;1.60;1.10;;;19.30;99.90;;;;;;5000080;28;20277;-86
2023/09/22 07:27:13;;;;;;;2.20;1.10;;;19.30;99.90;;;;;;5045980;28;20441;-87
2023/09/22 07:29:38;;;;;;;2.57;1.10;;;19.30;99.90;;;;;;5019376;28;20686;-87
2023/09/22 07:32:07;;;;;;;3.30;1.20;;;19.20;99.90;;;;;;5014411;28;20173;-86
2023/09/22 07:34:36;;;;;;;3.03;1.27;;;19.20;99.90;;;;;;4999491;28;20188;-86
2023/09/22 07:37:01;;;;;;;1.60;1.10;;;19.20;99.90;;;;;;4999734;28;20290;-86
2023/09/22 07:39:27;;;;;;;2.17;1.20;;;19.20;99.90;;;;;;4992159;28;20535;-86
2023/09/22 07:42:02;;;;;;;2.93;1.17;;;19.30;99.90;;;;;;5041425;28;20185;-86
2023/09/22 07:44:28;;;;;;;3.80;1.03;;;19.30;99.90;;;;;;5022790;28;20168;-87
2023/09/22 07:46:56;;;;;;;3.00;1.20;;;19.40;99.90;;;;;;4993783;28;20340;-86
2023/09/22 07:49:28;;;;;;;3.60;1.20;;;19.50;99.90;;;;;;4999581;28;20177;-87
2023/09/22 07:51:57;;;;;;;2.23;1.10;;;19.70;99.90;;;;;;5009727;28;20177;-87
2023/09/22 07:54:27;;;;;;;1.70;1.10;;;19.80;99.90;;;;;;5008517;28;20465;-87
2023/09/22 07:56:52;;;;;;;3.23;1.30;;;19.80;99.90;;;;;;4994797;28;20186;-86
2023/09/22 07:59:21;;;;;;;2.20;1.10;;;19.90;99.70;;;;;;4996260;28;20223;-86
2023/09/22 08:01:47;;;;;;;2.10;1.00;;;20.00;99.90;;;;;;5028464;28;20177;-86
2023/09/22 08:04:16;;;;;;;1.50;0.90;;;20.00;99.70;;;;;;4992325;28;20421;-87
2023/09/22 08:06:44;;;;;;;1.43;1.00;;;20.10;99.60;;;;;;4997820;28;20274;-87
2023/09/22 08:09:13;;;;;;;1.10;0.90;;;20.20;99.60;;;;;;4989123;28;20179;-86
2023/09/22 08:11:39;;;;;;;2.07;1.20;;;20.20;99.30;;;;;;5016931;28;20262;-86
2023/09/22 08:14:09;;;;;;;1.47;1.10;;;20.20;99.50;;;;;;4993501;28;20207;-87
2023/09/22 08:16:38;;;;;;;1.60;1.00;;;20.30;99.40;;;;;;5001359;28;20180;-87
2023/09/22 08:19:10;;;;;;;2.53;0.90;;;20.30;99.10;;;;;;5012079;28;20223;-86
2023/09/22 08:21:42;;;;;;;1.23;0.90;;;20.30;98.80;;;;;;4999239;28;20336;-87
2023/09/22 08:24:11;;;;;;;1.47;1.03;;;20.40;99.00;;;;;;5008662;28;20274;-87
2023/09/22 08:26:36;;;;;;;1.77;1.00;;;20.50;98.90;;;;;;5015151;28;20339;-87
2023/09/22 08:29:05;;;;;;;1.40;1.20;;;20.70;98.40;;;;;;5007477;28;20182;-87
2023/09/22 08:31:34;;;;;;;2.13;1.10;;;20.80;98.10;;;;;;4999671;28;20178;-88
2023/09/22 08:33:59;;;;;;;2.00;1.00;;;20.90;97.80;;;;;;4989594;28;20216;-86
2023/09/22 08:36:25;;;;;;;1.43;1.00;;;21.20;97.30;;;;;;5001945;28;20292;-87
2023/09/22 08:38:51;;;;;;;2.40;1.30;;;21.30;96.80;;;;;;4988467;28;20193;-87
2023/09/22 08:41:20;;;;;;;2.87;1.10;;;21.40;96.20;;;;;;4990277;28;20169;-87
2023/09/22 08:43:52;;;;;;;1.50;1.10;;;21.40;96.30;;;;;;4992196;28;20209;-87
2023/09/22 08:46:27;;;;;;;1.37;1.10;;;21.50;96.30;;;;;;4993030;28;20562;-87
2023/09/22 08:49:00;;;;;;;2.30;1.03;;;21.60;96.30;;;;;;4995880;28;20397;-88
2023/09/22 08:51:26;;;;;;;1.47;1.00;;;21.60;96.20;;;;;;4993126;28;20209;-87
2023/09/22 08:53:55;;;;;;;1.60;1.10;;;21.50;96.00;;;;;;5025723;28;20278;-88
2023/09/22 08:56:27;;;;;;;2.37;1.10;;;21.40;96.40;;;;;;5006416;28;20349;-87
2023/09/22 08:58:52;;;;;;;1.23;0.90;;;21.30;96.60;;;;;;4995225;28;20174;-86
2023/09/22 09:01:31;;;;;;;2.13;1.07;;;21.20;96.90;;;;;;4993333;28;20169;-87
2023/09/22 09:04:01;;;;;;;1.17;1.00;;;21.10;96.90;;;;;;5005040;28;20190;-86
2023/09/22 09:06:46;;;;;;;1.43;1.13;;;21.10;97.10;;;;;;5006389;28;20280;-87
2023/09/22 09:09:14;;;;;;;1.43;1.10;;;21.00;97.40;;;;;;5000451;28;20280;-87
2023/09/22 09:11:59;;;;;;;2.37;1.00;;;21.10;96.80;;;;;;5002082;28;20212;-87
2023/09/22 09:14:32;;;;;;;1.87;0.97;;;21.10;97.00;;;;;;4989751;28;20173;-87
2023/09/22 09:17:00;;;;;;;1.20;0.87;;;21.10;96.90;;;;;;4990318;28;20173;-87
2023/09/22 09:19:30;;;;;;;2.20;1.10;;;21.20;96.60;;;;;;4997297;28;20202;-87
2023/09/22 09:22:09;;;;;;;1.33;0.90;;;21.20;96.70;;;;;;4997100;28;20188;-88
2023/09/22 09:24:41;;;;;;;4.20;1.10;;;21.10;96.80;;;;;;5121685;27;21182;-14
2023/09/22 09:27:17;;;;;;;1.30;1.10;;;21.10;96.50;;;;;;5129551;28;20199;-15
2023/09/22 09:29:47;;;;;;;1.73;1.00;;;21.00;96.70;;;;;;5133033;27;20590;-13
2023/09/22 09:32:26;;;;;;;2.23;1.20;;;21.00;96.80;;;;;;5133730;27;20237;-13
2023/09/22 09:34:52;;;;;;;2.23;1.00;;;21.00;96.90;;;;;;5132255;28;20166;-14
2023/09/22 09:37:19;;;;;;;3.47;0.97;;;21.10;96.60;;;;;;5132267;28;20169;-13
2023/09/22 09:39:53;;;;;;;1.77;0.97;;;21.20;96.30;;;;;;5133139;27;20180;-12
2023/09/22 09:42:22;;;;;;;1.60;1.10;;;21.20;96.20;;;;;;5133755;28;20457;-14
2023/09/22 09:44:54;;;;;;;2.23;1.10;;;21.10;96.00;;;;;;5132912;28;20158;-13
2023/09/22 09:47:25;;;;;;;2.57;0.93;;;21.00;96.20;;;;;;5134213;28;20154;-12
2023/09/22 09:49:53;;;;;;;2.30;1.00;;;21.00;95.80;;;;;;5132997;28;20621;-13
2023/09/22 09:52:28;;;;;;;1.33;0.90;;;21.00;96.40;;;;;;5132545;27;20176;-13
2023/09/22 09:55:12;;;;;;;1.70;0.93;;;21.00;96.40;;;;;;5131351;28;20491;-14
2023/09/22 09:57:39;;;;;;;1.10;0.93;;;21.00;96.40;;;;;;5128596;27;20171;-14
2023/09/22 10:00:15;;;;;;;2.07;1.07;;;21.00;96.40;;;;;;5121851;27;20172;-14
2023/09/22 10:02:44;;;;;;;1.97;1.00;;;21.00;96.30;;;;;;5132725;28;20190;-15
2023/09/22 10:05:18;;;;;;;1.83;0.93;;;21.00;96.20;;;;;;5133292;27;20248;-13
2023/09/22 10:07:45;;;;;;;1.20;1.00;;;21.00;96.40;;;;;;5133235;28;20158;-13
2023/09/22 10:10:12;;;;;;;1.83;1.10;;;21.00;96.40;;;;;;5132775;27;20462;-13
2023/09/22 10:12:40;;;;;;;1.57;1.23;;;21.00;96.60;;;;;;5131761;28;20193;-15
2023/09/22 10:17:35;;;;;;;2.97;1.13;;;21.10;96.40;;;;;;5093392;22;20618;-14
2023/09/22 10:20:07;;;;;;;3.97;1.23;;;21.10;96.20;;;;;;5090856;28;20744;-16
2023/09/22 10:22:36;;;;;;;2.53;1.20;;;21.10;96.40;;;;;;5091366;28;20609;-14
2023/09/22 10:25:13;;;;;;;3.20;1.13;;;21.30;96.10;;;;;;5091389;28;20167;-13
2023/09/22 10:27:57;;;;;;;3.23;1.10;;;21.40;95.80;;;;;;5074508;28;20167;-14
2023/09/22 10:30:45;;;;;;;4.07;1.27;;;21.50;95.50;;;;;;5091512;28;20162;-13
2023/09/22 10:33:30;;;;;;;2.93;1.17;;;21.50;95.50;;;;;;5091621;28;20178;-14
2023/09/22 10:35:57;;;;;;;2.30;1.30;;;21.50;95.60;;;;;;5061715;28;20179;-13
2023/09/22 10:38:25;;;;;;;10.73;1.50;;;21.40;95.70;;;;;;5070617;28;20414;-14
2023/09/22 10:41:00;;;;;;;3.67;1.03;;;21.40;95.80;;;;;;5066154;28;20427;-15
2023/09/22 10:43:32;;;;;;;4.17;1.13;;;21.30;95.90;;;;;;5049231;28;20198;-14
2023/09/22 10:46:02;;;;;;;2.40;1.00;;;21.30;95.90;;;;;;5066129;28;20203;-15
2023/09/22 10:48:35;;;;;;;1.97;1.20;;;21.30;96.00;;;;;;5047155;28;20279;-15
2023/09/22 10:51:02;;;;;;;2.00;1.10;;;21.30;96.10;;;;;;5064300;28;20167;-15
2023/09/22 10:53:29;;;;;;;2.77;1.10;;;21.30;96.10;;;;;;5067106;28;20720;-14
2023/09/22 10:56:03;;;;;;;1.77;1.03;;;21.30;96.00;;;;;;5066471;28;20203;-14
2023/09/22 10:58:29;;;;;;;2.47;1.10;;;21.30;96.10;;;;;;5067008;28;20229;-13
2023/09/22 11:00:59;;;;;;;3.43;1.20;;;21.30;96.10;;;;;;5033406;28;20176;-13
2023/09/22 11:03:25;;;;;;;2.87;1.17;;;21.30;96.00;;;;;;5048492;28;20470;-14
2023/09/22 11:06:10;;;;;;;3.87;1.27;;;21.30;95.90;;;;;;5068053;28;20163;-14
2023/09/22 11:08:50;;;;;;;2.03;1.23;;;21.30;95.80;;;;;;5048921;28;20524;-14
2023/09/22 11:11:16;;;;;;;3.60;1.10;;;21.30;95.60;;;;;;5063458;28;20435;-15
2023/09/22 11:13:54;;;;;;;1.97;1.00;;;21.30;95.80;;;;;;5040346;28;20184;-14
2023/09/22 11:16:21;;;;;;;2.20;1.03;;;21.30;95.80;;;;;;5050761;28;20524;-13
2023/09/22 11:18:51;;;;;;;2.10;1.07;;;21.30;95.40;;;;;;5045704;28;20670;-14
2023/09/22 11:21:17;;;;;;;3.93;1.13;;;21.30;95.70;;;;;;5046154;28;20251;-13
2023/09/22 11:23:43;;;;;;;5.47;1.20;;;21.30;95.90;;;;;;5045384;28;20475;-15
2023/09/22 11:26:11;;;;;;;1.40;1.00;;;21.30;95.90;;;;;;5046186;28;20168;-13
2023/09/22 11:28:41;;;;;;;1.03;0.90;;;21.30;94.90;;;;;;5074771;28;20203;-13
2023/09/22 11:31:08;;;;;;;2.83;1.10;;;21.30;95.90;;;;;;5072444;22;20215;-13
2023/09/22 11:33:36;;;;;;;3.47;1.20;;;21.30;95.70;;;;;;5028136;28;20181;-13
2023/09/22 11:36:03;;;;;;;4.83;1.27;;;21.30;95.80;;;;;;5049493;28;20289;-12
2023/09/22 11:38:35;;;;;;;2.23;1.20;;;21.30;95.30;;;;;;5019832;28;20172;-14
2023/09/22 11:41:08;;;;;;;2.17;1.10;;;21.30;95.50;;;;;;5021984;28;20177;-14
2023/09/22 11:43:41;;;;;;;2.37;1.10;;;21.30;95.40;;;;;;5049431;28;20215;-15
2023/09/22 11:46:13;;;;;;;2.23;1.00;;;21.30;95.30;;;;;;5035703;28;20169;-14
2023/09/22 11:48:59;;;;;;;1.77;1.00;;;21.30;95.30;;;;;;5036457;28;20169;-14
2023/09/22 11:51:43;;;;;;;1.30;1.20;;;21.30;94.40;;;;;;5019475;28;20686;-13
2023/09/22 11:54:10;;;;;;;2.00;1.03;;;21.30;95.10;;;;;;5029912;28;20173;-11
2023/09/22 11:56:36;;;;;;;1.40;1.00;;;21.30;95.00;;;;;;5017826;28;20187;-11
2023/09/22 11:59:21;;;;;;;1.27;1.00;;;21.40;94.50;;;;;;5046655;28;20180;-10
2023/09/22 12:01:52;;;;;;;1.90;1.00;;;21.40;95.10;;;;;;5055922;28;20172;-14
2023/09/22 12:04:22;;;;;;;1.70;1.13;;;21.30;95.00;;;;;;5055183;28;20210;-12
2023/09/22 12:06:49;;;;;;;1.50;1.03;;;21.40;94.90;;;;;;5055229;28;20153;-13
2023/09/22 12:09:15;;;;;;;1.93;1.13;;;21.40;94.60;;;;;;5052224;28;20518;-13
2023/09/22 12:11:42;;;;;;;1.77;1.00;;;21.40;94.50;;;;;;5024811;28;20247;-13
2023/09/22 12:14:09;;;;;;;2.30;1.20;;;21.40;94.80;;;;;;5025947;28;20192;-12
2023/09/22 12:16:35;;;;;;;2.60;1.10;;;21.40;94.60;;;;;;5031802;28;20237;-13
2023/09/22 12:19:01;;;;;;;2.47;1.20;;;21.40;95.00;;;;;;5038003;28;20530;-14
2023/09/22 12:21:28;;;;;;;2.07;1.20;;;21.40;95.00;;;;;;5052075;28;20189;-13
2023/09/22 12:23:54;;;;;;;2.17;1.10;;;21.40;95.00;;;;;;5045965;28;20685;-15
2023/09/22 12:26:20;;;;;;;2.27;1.20;;;21.40;95.00;;;;;;5043860;28;20169;-13
2023/09/22 12:28:47;;;;;;;2.17;1.23;;;21.40;94.90;;;;;;5025554;28;20257;-13
2023/09/22 12:31:13;;;;;;;1.37;1.00;;;21.40;94.90;;;;;;5043619;28;20269;-12
2023/09/22 12:33:38;;;;;;;1.97;1.20;;;21.40;94.50;;;;;;5044347;28;20265;-13
2023/09/22 12:36:04;;;;;;;1.30;1.03;;;21.40;94.80;;;;;;5044460;28;20180;-13
2023/09/22 12:38:30;;;;;;;1.87;1.10;;;21.40;94.70;;;;;;5025929;28;20189;-14
2023/09/22 12:40:59;;;;;;;1.20;0.90;;;21.40;94.40;;;;;;5044303;28;20168;-13
2023/09/22 12:43:27;;;;;;;2.80;1.10;;;21.40;94.60;;;;;;5028821;28;20214;-13
2023/09/22 12:45:53;;;;;;;2.07;1.10;;;21.50;94.60;;;;;;5038319;22;20434;-13
2023/09/22 12:48:19;;;;;;;1.90;1.20;;;21.40;94.30;;;;;;5044338;28;20187;-13
2023/09/22 12:50:56;;;;;;;3.10;0.97;;;21.40;94.20;;;;;;5042169;28;20254;-13
2023/09/22 12:53:25;;;;;;;2.03;1.20;;;21.50;94.60;;;;;;5049515;28;20179;-12
2023/09/22 12:55:58;;;;;;;2.10;0.80;;;21.50;94.60;;;;;;5051443;28;20168;-12
2023/09/22 12:58:27;;;;;;;2.23;1.10;;;21.50;94.50;;;;;;5045890;28;20541;-13
2023/09/22 13:00:59;;;;;;;2.80;1.70;;;21.50;94.60;;;;;;5040363;28;20188;-13
2023/09/22 13:03:26;;;;;;;1.93;1.00;;;21.50;93.90;;;;;;5052075;28;20260;-14
2023/09/22 13:05:52;;;;;;;3.47;1.20;;;21.50;94.10;;;;;;5046594;28;20556;-13
2023/09/22 13:08:17;;;;;;;2.57;1.20;;;21.50;94.00;;;;;;5045827;28;20175;-12